createdAt,value
2019-05-14T00:01:03.472Z,59.80
2019-05-14T00:03:31.701Z,59.80
2019-05-14T00:06:02.266Z,59.90
2019-05-14T00:08:31.543Z,60.00
2019-05-14T00:11:01.467Z,60.20
2019-05-14T00:13:32.168Z,60.40
2019-05-14T00:16:01.514Z,60.50
2019-05-14T00:18:31.467Z,60.70
2019-05-14T00:21:01.943Z,60.80
2019-05-14T00:23:31.892Z,61.00
2019-05-14T00:26:01.734Z,61.10
2019-05-14T00:28:31.729Z,61.00
2019-05-14T00:31:02.932Z,61.30
2019-05-14T00:33:31.678Z,61.40
2019-05-14T00:36:02.177Z,61.60
2019-05-14T00:38:31.621Z,61.60
2019-05-14T00:41:02.037Z,61.50
2019-05-14T00:43:32.405Z,61.70
2019-05-14T00:46:01.831Z,61.80
2019-05-14T00:48:31.724Z,61.70
2019-05-14T00:51:02.144Z,61.70
2019-05-14T00:53:32.013Z,61.60
2019-05-14T00:56:02.153Z,61.50
2019-05-14T00:58:31.899Z,61.60
2019-05-14T01:01:01.599Z,61.60
2019-05-14T01:03:32.476Z,61.80
2019-05-14T01:06:02.960Z,61.80
2019-05-14T01:08:32.173Z,61.90
2019-05-14T01:11:01.576Z,61.80
2019-05-14T01:13:31.293Z,62.30
2019-05-14T01:16:01.651Z,62.60
2019-05-14T01:18:32.319Z,62.40
2019-05-14T01:21:01.623Z,62.60
2019-05-14T01:23:32.255Z,62.60
2019-05-14T01:26:02.359Z,62.80
2019-05-14T01:28:32.295Z,62.80
2019-05-14T01:31:01.344Z,62.90
2019-05-14T01:33:31.889Z,63.00
2019-05-14T01:36:02.005Z,63.50
2019-05-14T01:38:31.569Z,63.60
2019-05-14T01:41:01.873Z,63.60
2019-05-14T01:43:31.623Z,63.90
2019-05-14T01:48:56.768Z,63.70
2019-05-14T01:51:25.762Z,63.80
2019-05-14T01:53:54.613Z,64.00
2019-05-14T01:56:23.483Z,64.10
2019-05-14T01:58:52.482Z,64.20
2019-05-14T02:01:22.344Z,64.40
2019-05-14T02:03:51.760Z,64.60
2019-05-14T02:06:21.393Z,64.50
2019-05-14T02:08:51.537Z,64.70
2019-05-14T02:11:21.389Z,64.50
2019-05-14T02:13:51.862Z,64.80
2019-05-14T02:16:21.965Z,65.20
2019-05-14T02:18:52.276Z,65.20
2019-05-14T02:21:22.890Z,65.20
2019-05-14T02:23:51.811Z,65.00
2019-05-14T02:26:22.080Z,65.00
2019-05-14T02:28:51.519Z,65.10
2019-05-14T02:31:20.647Z,65.20
2019-05-14T02:33:50.596Z,65.10
2019-05-14T02:36:19.888Z,65.30
2019-05-14T02:38:49.532Z,65.40
2019-05-14T02:41:19.702Z,64.80
2019-05-14T02:43:50.247Z,64.50
2019-05-14T02:46:21.857Z,64.70
2019-05-14T02:48:50.075Z,65.10
2019-05-14T02:51:30.029Z,65.30
2019-05-14T02:53:59.315Z,65.80
2019-05-14T02:56:29.507Z,65.80
2019-05-14T02:58:59.968Z,65.60
2019-05-14T03:01:30.130Z,66.50
2019-05-14T03:03:59.903Z,65.40
2019-05-14T03:06:29.334Z,65.40
2019-05-14T03:08:59.935Z,65.70
2019-05-14T03:11:29.901Z,65.80
2019-05-14T03:13:59.963Z,66.40
2019-05-14T03:16:32.523Z,65.90
2019-05-14T03:18:59.786Z,66.20
2019-05-14T03:21:30.644Z,66.10
2019-05-14T03:24:00.688Z,65.80
2019-05-14T03:26:30.164Z,65.80
2019-05-14T03:29:00.065Z,66.10
2019-05-14T03:31:32.937Z,66.30
2019-05-14T03:34:03.142Z,66.30
2019-05-14T03:36:34.901Z,66.60
2019-05-14T03:39:01.179Z,66.70
2019-05-14T03:41:30.758Z,66.50
2019-05-14T03:44:00.259Z,66.50
2019-05-14T03:46:44.260Z,66.60
2019-05-14T03:49:00.335Z,66.40
2019-05-14T03:51:29.983Z,66.60
2019-05-14T03:54:06.697Z,66.50
2019-05-14T03:56:30.011Z,66.40
2019-05-14T03:58:59.941Z,66.70
2019-05-14T04:01:29.881Z,66.80
2019-05-14T04:03:59.429Z,66.70
2019-05-14T04:06:30.458Z,66.50
2019-05-14T04:09:00.970Z,66.70
2019-05-14T04:11:31.612Z,66.90
2019-05-14T04:14:03.618Z,67.00
2019-05-14T04:16:34.899Z,67.10
2019-05-14T04:19:05.261Z,67.00
2019-05-14T04:21:39.830Z,66.90
2019-05-14T04:24:09.746Z,66.80
2019-05-14T04:26:56.211Z,66.80
2019-05-14T04:29:13.565Z,66.60
2019-05-14T04:31:44.640Z,66.60
2019-05-14T04:34:14.733Z,66.70
2019-05-14T04:36:43.715Z,66.60
2019-05-14T04:39:12.648Z,66.30
2019-05-14T04:41:41.618Z,66.20
2019-05-14T04:44:10.504Z,66.00
2019-05-14T04:46:39.687Z,66.10
2019-05-14T04:49:09.818Z,66.20
2019-05-14T04:51:39.706Z,66.30
2019-05-14T04:54:09.745Z,66.40
2019-05-14T04:56:39.965Z,66.50
2019-05-14T04:59:10.404Z,66.70
2019-05-14T05:01:40.323Z,66.80
2019-05-14T05:04:09.733Z,66.50
2019-05-14T05:06:39.624Z,66.40
2019-05-14T05:09:09.784Z,66.20
2019-05-14T05:11:39.654Z,66.30
2019-05-14T05:14:09.080Z,66.60
2019-05-14T05:16:39.168Z,66.90
2019-05-14T05:19:10.440Z,67.40
2019-05-14T05:21:38.947Z,67.70
2019-05-14T05:24:09.172Z,67.70
2019-05-14T05:26:39.219Z,67.50
2019-05-14T05:29:10.554Z,67.30
2019-05-14T05:31:38.959Z,67.40
2019-05-14T05:34:08.966Z,67.30
2019-05-14T05:36:38.186Z,67.00
2019-05-14T05:39:08.717Z,66.70
2019-05-14T05:41:38.524Z,66.80
2019-05-14T05:44:08.241Z,65.70
2019-05-14T05:46:38.793Z,65.40
2019-05-14T05:49:08.140Z,65.70
2019-05-14T05:51:39.229Z,65.70
2019-05-14T05:54:09.261Z,65.70
2019-05-14T05:56:38.787Z,65.60
2019-05-14T05:59:09.595Z,65.60
2019-05-14T06:01:45.775Z,65.60
2019-05-14T06:04:08.914Z,65.50
2019-05-14T06:06:39.027Z,65.60
2019-05-14T06:09:08.964Z,65.70
2019-05-14T06:11:38.274Z,65.60
2019-05-14T06:14:08.298Z,65.30
2019-05-14T06:16:38.493Z,65.00
2019-05-14T06:19:08.183Z,65.10
2019-05-14T06:21:39.688Z,65.20
2019-05-14T06:24:09.042Z,65.10
2019-05-14T06:26:38.496Z,65.40
2019-05-14T06:29:08.423Z,65.60
2019-05-14T06:31:38.719Z,65.60
2019-05-14T06:34:09.594Z,65.50
2019-05-14T06:36:39.602Z,65.60
2019-05-14T06:39:09.370Z,65.60
2019-05-14T06:41:42.723Z,65.00
2019-05-14T06:44:09.215Z,64.20
2019-05-14T06:46:39.156Z,61.80
2019-05-14T06:49:09.099Z,59.50
2019-05-14T06:51:39.556Z,59.40
2019-05-14T06:54:09.227Z,57.50
2019-05-14T06:56:38.691Z,56.10
2019-05-14T06:59:08.972Z,54.80
2019-05-14T07:01:38.525Z,53.30
2019-05-14T07:04:08.852Z,51.70
2019-05-14T07:06:39.119Z,50.70
2019-05-14T07:09:08.365Z,49.70
2019-05-14T07:11:38.866Z,49.70
2019-05-14T07:14:11.332Z,49.10
2019-05-14T07:16:39.031Z,48.50
2019-05-14T07:19:09.469Z,48.00
2019-05-14T07:21:38.625Z,46.70
2019-05-14T07:24:08.787Z,45.40
2019-05-14T07:26:38.863Z,45.20
2019-05-14T07:29:11.599Z,44.30
2019-05-14T07:31:38.728Z,43.20
2019-05-14T07:34:08.965Z,42.50
2019-05-14T07:36:38.729Z,43.20
2019-05-14T07:39:09.285Z,42.70
2019-05-14T07:41:39.086Z,42.60
2019-05-14T07:44:09.295Z,42.50
2019-05-14T07:46:39.008Z,41.70
2019-05-14T07:49:11.419Z,41.00
2019-05-14T07:51:38.909Z,40.60
2019-05-14T07:54:08.298Z,39.70
2019-05-14T07:56:38.454Z,38.80
2019-05-14T07:59:08.899Z,39.00
2019-05-14T08:01:38.836Z,39.10
2019-05-14T08:04:11.273Z,38.50
2019-05-14T08:06:39.438Z,39.20
2019-05-14T08:09:09.994Z,38.70
2019-05-14T08:11:38.988Z,38.20
2019-05-14T08:14:09.020Z,38.30
2019-05-14T08:16:38.306Z,39.00
2019-05-14T08:19:20.869Z,39.10
2019-05-14T08:21:38.705Z,38.20
2019-05-14T08:24:08.905Z,37.00
2019-05-14T08:26:38.360Z,36.00
2019-05-14T08:29:08.660Z,35.80
2019-05-14T08:31:38.367Z,35.40
2019-05-14T08:34:09.156Z,34.10
2019-05-14T08:36:38.130Z,34.10
2019-05-14T08:39:08.810Z,34.40
2019-05-14T08:41:38.393Z,33.60
2019-05-14T08:44:08.545Z,33.60
2019-05-14T08:46:38.899Z,33.40
2019-05-14T08:49:08.995Z,33.10
2019-05-14T08:51:38.800Z,32.50
2019-05-14T08:54:08.317Z,32.90
2019-05-14T08:56:38.933Z,33.10
2019-05-14T08:59:08.755Z,33.10
2019-05-14T09:01:38.745Z,31.70
2019-05-14T09:04:09.026Z,31.80
2019-05-14T09:06:38.588Z,31.60
2019-05-14T09:09:09.662Z,31.30
2019-05-14T09:11:45.471Z,31.40
2019-05-14T09:14:11.007Z,31.00
2019-05-14T09:16:46.957Z,31.20
2019-05-14T09:19:10.264Z,31.60
2019-05-14T09:21:39.924Z,31.20
2019-05-14T09:24:09.589Z,30.50
2019-05-14T09:26:39.067Z,31.00
2019-05-14T09:29:19.725Z,30.70
2019-05-14T09:31:39.258Z,30.40
2019-05-14T09:34:09.183Z,31.20
2019-05-14T09:36:39.582Z,30.50
2019-05-14T09:39:12.172Z,31.10
2019-05-14T09:41:39.779Z,30.90
2019-05-14T09:44:09.314Z,31.10
2019-05-14T09:46:38.606Z,31.00
2019-05-14T09:49:08.039Z,31.40
2019-05-14T09:51:38.445Z,31.30
2019-05-14T09:54:08.523Z,30.80
2019-05-14T09:56:39.526Z,30.80
2019-05-14T09:59:09.206Z,31.60
2019-05-14T10:01:38.510Z,31.40
2019-05-14T10:04:09.221Z,31.60
2019-05-14T10:06:39.180Z,31.50
2019-05-14T10:09:08.671Z,31.40
2019-05-14T10:11:38.388Z,30.70
2019-05-14T10:14:08.001Z,30.80
2019-05-14T10:16:38.526Z,30.40
2019-05-14T10:19:07.617Z,31.40
2019-05-14T10:21:38.654Z,31.70
2019-05-14T10:24:09.284Z,31.20
2019-05-14T10:26:39.429Z,30.30
2019-05-14T10:29:08.662Z,31.00
2019-05-14T10:31:39.711Z,31.10
2019-05-14T10:34:08.495Z,30.60
2019-05-14T10:36:37.371Z,30.50
2019-05-14T10:39:09.358Z,30.30
2019-05-14T10:41:38.650Z,30.60
2019-05-14T10:44:09.274Z,30.80
2019-05-14T10:46:38.548Z,31.00
2019-05-14T10:49:17.462Z,30.60
2019-05-14T10:51:38.915Z,30.90
2019-05-14T10:54:21.169Z,31.20
2019-05-14T10:56:38.556Z,31.40
2019-05-14T10:59:09.438Z,31.30
2019-05-14T11:01:39.069Z,31.50
2019-05-14T11:04:08.133Z,32.10
2019-05-14T11:06:38.774Z,32.20
2019-05-14T11:09:09.064Z,31.50
2019-05-14T11:11:38.410Z,31.70
2019-05-14T11:14:08.795Z,31.20
2019-05-14T11:16:41.567Z,31.00
2019-05-14T11:19:09.277Z,31.40
2019-05-14T11:21:39.169Z,31.40
2019-05-14T11:24:09.507Z,31.20
2019-05-14T11:26:39.320Z,31.40
2019-05-14T11:29:08.475Z,31.40
2019-05-14T11:31:39.201Z,31.70
2019-05-14T11:34:08.404Z,31.80
2019-05-14T11:36:38.941Z,31.60
2019-05-14T11:39:09.414Z,30.70
2019-05-14T11:41:39.017Z,31.50
2019-05-14T11:44:09.095Z,31.90
2019-05-14T11:46:46.838Z,31.70
2019-05-14T11:49:09.004Z,31.00
2019-05-14T11:51:59.287Z,31.10
2019-05-14T11:54:09.466Z,31.00
2019-05-14T11:56:41.874Z,31.10
2019-05-14T11:59:09.129Z,32.00
2019-05-14T12:01:39.236Z,32.30
2019-05-14T12:04:09.113Z,31.70
2019-05-14T12:06:38.987Z,31.20
2019-05-14T12:09:11.980Z,30.80
2019-05-14T12:11:38.967Z,30.80
2019-05-14T12:14:08.836Z,31.60
2019-05-14T12:16:40.246Z,32.20
2019-05-14T12:19:12.062Z,31.90
2019-05-14T12:21:39.878Z,32.40
2019-05-14T12:24:13.700Z,32.00
2019-05-14T12:26:39.556Z,32.60
2019-05-14T12:29:09.928Z,32.10
2019-05-14T12:31:39.031Z,31.50
2019-05-14T12:34:08.032Z,31.70
2019-05-14T12:36:38.981Z,31.90
2019-05-14T12:39:09.565Z,31.90
2019-05-14T12:41:39.053Z,32.00
2019-05-14T12:44:09.340Z,32.10
2019-05-14T12:46:38.504Z,32.00
2019-05-14T12:49:07.468Z,31.70
2019-05-14T12:51:42.265Z,31.70
2019-05-14T12:54:09.296Z,32.30
2019-05-14T12:56:39.021Z,32.50
2019-05-14T12:59:08.114Z,32.60
2019-05-14T13:01:37.138Z,32.60
2019-05-14T13:04:07.970Z,32.60
2019-05-14T13:06:39.896Z,32.80
2019-05-14T13:09:09.403Z,33.00
2019-05-14T13:11:41.302Z,33.00
2019-05-14T13:14:08.495Z,33.20
2019-05-14T13:16:39.672Z,33.70
2019-05-14T13:19:09.207Z,34.00
2019-05-14T13:21:38.974Z,34.10
2019-05-14T13:24:08.923Z,34.00
2019-05-14T13:26:39.017Z,33.40
2019-05-14T13:29:10.680Z,33.50
2019-05-14T13:31:38.906Z,33.60
2019-05-14T13:34:08.925Z,33.80
2019-05-14T13:36:39.716Z,33.50
2019-05-14T13:39:09.443Z,33.40
2019-05-14T13:41:41.772Z,33.70
2019-05-14T13:44:21.301Z,33.90
2019-05-14T13:46:39.643Z,33.80
2019-05-14T13:49:08.520Z,34.00
2019-05-14T13:51:38.841Z,34.10
2019-05-14T13:54:08.494Z,34.30
2019-05-14T13:56:39.025Z,33.60
2019-05-14T13:59:09.552Z,33.90
2019-05-14T14:01:38.651Z,33.80
2019-05-14T14:04:12.543Z,33.60
2019-05-14T14:06:39.329Z,33.60
2019-05-14T14:09:12.337Z,33.20
2019-05-14T14:11:39.215Z,32.70
2019-05-14T14:14:08.943Z,33.10
2019-05-14T14:16:39.617Z,33.40
2019-05-14T14:19:08.871Z,33.40
2019-05-14T14:21:39.561Z,33.60
2019-05-14T14:24:09.577Z,34.00
2019-05-14T14:26:39.357Z,33.60
2019-05-14T14:29:09.265Z,34.20
2019-05-14T14:31:41.364Z,34.30
2019-05-14T14:34:09.273Z,34.30
2019-05-14T14:36:38.741Z,34.60
2019-05-14T14:39:09.711Z,34.70
2019-05-14T14:41:38.548Z,34.60
2019-05-14T14:44:08.804Z,34.60
2019-05-14T14:46:39.169Z,34.60
2019-05-14T14:49:10.765Z,34.70
2019-05-14T14:51:43.914Z,35.00
2019-05-14T14:54:14.728Z,35.20
2019-05-14T14:56:40.087Z,34.40
2019-05-14T14:59:09.619Z,34.30
2019-05-14T15:01:40.511Z,34.30
2019-05-14T15:04:13.820Z,34.10
2019-05-14T15:06:40.308Z,34.00
2019-05-14T15:09:09.755Z,34.10
2019-05-14T15:11:39.634Z,34.30
2019-05-14T15:14:08.852Z,34.40
2019-05-14T15:16:39.106Z,34.00
2019-05-14T15:19:09.494Z,34.30
2019-05-14T15:21:38.508Z,35.00
2019-05-14T15:24:15.147Z,35.50
2019-05-14T15:26:37.989Z,35.50
2019-05-14T15:29:09.699Z,35.30
2019-05-14T15:31:38.579Z,35.10
2019-05-14T15:34:08.930Z,35.50
2019-05-14T15:36:41.268Z,35.60
2019-05-14T15:39:09.920Z,35.90
2019-05-14T15:41:39.552Z,36.10
2019-05-14T15:44:09.011Z,36.20
2019-05-14T15:46:41.746Z,36.60
2019-05-14T15:49:09.165Z,36.70
2019-05-14T15:51:39.771Z,36.40
2019-05-14T15:54:34.612Z,35.90
2019-05-14T15:56:39.546Z,36.10
2019-05-14T15:59:08.857Z,35.90
2019-05-14T16:01:39.785Z,35.60
2019-05-14T16:04:11.402Z,35.20
2019-05-14T16:06:40.200Z,35.10
2019-05-14T16:09:09.090Z,35.50
2019-05-14T16:11:39.340Z,35.00
2019-05-14T16:14:10.355Z,34.70
2019-05-14T16:16:39.301Z,34.90
2019-05-14T16:19:08.342Z,35.00
2019-05-14T16:21:38.621Z,35.10
2019-05-14T16:24:08.434Z,35.40
2019-05-14T16:26:37.415Z,35.60
2019-05-14T16:29:08.849Z,35.50
2019-05-14T16:31:42.873Z,35.60
2019-05-14T16:34:09.762Z,35.60
2019-05-14T16:36:41.268Z,35.50
2019-05-14T16:39:09.677Z,35.80
2019-05-14T16:41:39.067Z,36.60
2019-05-14T16:44:09.015Z,36.20
2019-05-14T16:46:38.597Z,36.20
2019-05-14T16:49:08.925Z,36.40
2019-05-14T16:51:37.967Z,37.20
2019-05-14T16:54:06.826Z,37.30
2019-05-14T16:56:41.102Z,37.30
2019-05-14T16:59:09.037Z,37.10
2019-05-14T17:01:37.538Z,37.30
2019-05-14T17:04:09.037Z,37.30
2019-05-14T17:06:38.564Z,37.40
2019-05-14T17:09:08.880Z,37.80
2019-05-14T17:11:39.065Z,37.50
2019-05-14T17:14:08.668Z,36.90
2019-05-14T17:16:37.741Z,36.40
2019-05-14T17:19:09.148Z,35.80
2019-05-14T17:21:39.069Z,35.60
2019-05-14T17:24:08.751Z,35.90
2019-05-14T17:26:38.104Z,35.80
2019-05-14T17:29:08.798Z,35.30
2019-05-14T17:31:39.077Z,35.20
2019-05-14T17:34:08.726Z,35.40
2019-05-14T17:36:38.951Z,34.90
2019-05-14T17:39:09.468Z,34.90
2019-05-14T17:41:41.668Z,34.90
2019-05-14T17:44:09.078Z,35.10
2019-05-14T17:46:39.431Z,34.40
2019-05-14T17:49:08.507Z,34.40
2019-05-14T17:51:39.089Z,33.90
2019-05-14T17:54:09.268Z,34.00
2019-05-14T17:56:39.012Z,33.50
2019-05-14T17:59:08.580Z,32.40
2019-05-14T18:01:39.318Z,31.90
2019-05-14T18:04:09.078Z,32.70
2019-05-14T18:06:38.261Z,31.70
2019-05-14T18:09:09.127Z,31.30
2019-05-14T18:11:39.924Z,31.20
2019-05-14T18:14:11.963Z,31.60
2019-05-14T18:16:38.866Z,32.30
2019-05-14T18:19:08.779Z,33.50
2019-05-14T18:21:38.983Z,32.80
2019-05-14T18:24:07.967Z,32.10
2019-05-14T18:26:38.605Z,31.30
2019-05-14T18:29:08.758Z,30.70
2019-05-14T18:31:44.041Z,30.60
2019-05-14T18:34:08.479Z,29.90
2019-05-14T18:36:39.542Z,30.00
2019-05-14T18:39:09.272Z,30.80
2019-05-14T18:41:39.028Z,31.40
2019-05-14T18:44:08.484Z,32.30
2019-05-14T18:46:39.347Z,33.00
2019-05-14T18:49:08.767Z,33.80
2019-05-14T18:51:37.938Z,34.50
2019-05-14T18:54:08.031Z,35.50
2019-05-14T18:56:38.390Z,36.40
2019-05-14T18:59:08.887Z,37.90
2019-05-14T19:01:39.759Z,37.90
2019-05-14T19:04:08.697Z,38.40
2019-05-14T19:06:38.891Z,38.80
2019-05-14T19:09:10.661Z,39.40
2019-05-14T19:11:39.818Z,39.80
2019-05-14T19:14:09.046Z,40.40
2019-05-14T19:16:38.362Z,41.10
2019-05-14T19:19:08.055Z,41.60
2019-05-14T19:21:38.298Z,41.90
2019-05-14T19:24:09.070Z,42.30
2019-05-14T19:26:40.392Z,42.70
2019-05-14T19:29:08.806Z,43.20
2019-05-14T19:31:38.661Z,43.50
2019-05-14T19:34:08.459Z,44.00
2019-05-14T19:36:39.767Z,44.50
2019-05-14T19:39:08.389Z,44.80
2019-05-14T19:41:38.974Z,45.00
2019-05-14T19:44:08.803Z,45.60
2019-05-14T19:46:38.640Z,45.90
2019-05-14T19:49:08.220Z,46.10
2019-05-14T19:51:38.732Z,46.60
2019-05-14T19:54:08.258Z,46.80
2019-05-14T19:56:52.415Z,47.00
2019-05-14T19:59:09.094Z,47.40
2019-05-14T20:01:38.640Z,47.70
2019-05-14T20:04:09.572Z,48.00
2019-05-14T20:06:38.964Z,48.30
2019-05-14T20:09:09.501Z,48.60
2019-05-14T20:11:42.771Z,49.00
2019-05-14T20:14:11.696Z,49.30
2019-05-14T20:16:40.635Z,50.10
2019-05-14T20:19:09.544Z,49.80
2019-05-14T20:21:38.958Z,50.10
2019-05-14T20:24:08.125Z,50.50
2019-05-14T20:26:38.988Z,50.60
2019-05-14T20:29:08.729Z,51.00
2019-05-14T20:31:39.018Z,51.10
2019-05-14T20:34:08.529Z,51.50
2019-05-14T20:36:38.981Z,51.70
2019-05-14T20:39:08.673Z,52.00
2019-05-14T20:41:38.514Z,52.20
2019-05-14T20:44:08.211Z,52.40
2019-05-14T20:46:38.278Z,52.60
2019-05-14T20:49:08.851Z,52.80
2019-05-14T20:51:38.872Z,53.10
2019-05-14T20:54:08.901Z,53.40
2019-05-14T20:56:40.208Z,53.50
2019-05-14T20:59:09.708Z,53.70
2019-05-14T21:01:38.882Z,53.90
2019-05-14T21:04:09.029Z,54.20
2019-05-14T21:06:39.040Z,54.60
2019-05-14T21:09:08.242Z,54.70
2019-05-14T21:11:38.425Z,54.90
2019-05-14T21:14:08.940Z,55.20
2019-05-14T21:16:39.151Z,55.40
2019-05-14T21:19:08.625Z,55.60
2019-05-14T21:21:38.353Z,55.80
2019-05-14T21:24:08.861Z,55.90
2019-05-14T21:26:40.137Z,56.20
2019-05-14T21:29:08.498Z,56.30
2019-05-14T21:31:38.523Z,56.50
2019-05-14T21:34:08.203Z,56.60
2019-05-14T21:36:39.155Z,56.80
2019-05-14T21:39:08.050Z,57.10
2019-05-14T21:41:38.748Z,57.20
2019-05-14T21:44:08.485Z,57.30
2019-05-14T21:46:39.844Z,57.50
2019-05-14T21:49:10.848Z,57.70
2019-05-14T21:51:39.223Z,57.80
2019-05-14T21:54:09.481Z,57.80
2019-05-14T21:56:38.933Z,58.10
2019-05-14T21:59:09.507Z,58.30
2019-05-14T22:01:39.376Z,58.30
2019-05-14T22:04:11.454Z,58.60
2019-05-14T22:06:41.310Z,58.60
2019-05-14T22:09:09.627Z,58.70
2019-05-14T22:11:39.295Z,59.00
2019-05-14T22:14:08.496Z,59.10
2019-05-14T22:16:38.116Z,59.30
2019-05-14T22:19:08.643Z,59.40
2019-05-14T22:21:38.718Z,59.60
2019-05-14T22:24:08.097Z,59.70
2019-05-14T22:26:38.855Z,60.00
2019-05-14T22:29:08.286Z,60.00
2019-05-14T22:31:38.711Z,60.20
2019-05-14T22:34:08.855Z,60.50
2019-05-14T22:36:38.677Z,60.80
2019-05-14T22:39:07.879Z,60.90
2019-05-14T22:41:38.272Z,61.30
2019-05-14T22:44:09.578Z,61.50
2019-05-14T22:46:40.221Z,61.70
2019-05-14T22:49:09.213Z,61.70
2019-05-14T22:51:38.351Z,61.70
2019-05-14T22:54:08.739Z,62.10
2019-05-14T22:56:38.956Z,62.50
2019-05-14T22:59:08.181Z,62.70
2019-05-14T23:01:38.720Z,62.90
2019-05-14T23:04:09.075Z,63.20
2019-05-14T23:06:38.397Z,63.40
2019-05-14T23:09:09.080Z,63.30
2019-05-14T23:11:38.608Z,63.60
2019-05-14T23:14:07.681Z,64.00
2019-05-14T23:16:39.382Z,64.10
2019-05-14T23:19:07.979Z,65.00
2019-05-14T23:21:39.054Z,64.20
2019-05-14T23:24:09.132Z,64.30
2019-05-14T23:26:38.304Z,64.30
2019-05-14T23:29:07.230Z,64.50
2019-05-14T23:31:38.269Z,64.70
2019-05-14T23:34:06.689Z,64.60
2019-05-14T23:36:35.572Z,64.70
2019-05-14T23:39:08.575Z,64.80
2019-05-14T23:41:38.419Z,65.00
2019-05-14T23:44:08.401Z,65.10
2019-05-14T23:46:37.612Z,65.20
2019-05-14T23:49:08.753Z,65.40
2019-05-14T23:51:38.508Z,65.30
2019-05-14T23:54:08.745Z,65.60
2019-05-14T23:56:38.514Z,66.10
2019-05-14T23:59:09.284Z,65.50
